sensor_id;sensor_type;location;lat;lon;timestamp;pressure;altitude;pressure_sealevel;temperature;humidity
60089;BME280;45961;53.574;55.878;2023-12-04T00:00:25;100048.16;;;-4.84;92.73
60089;BME280;45961;53.574;55.878;2023-12-04T00:01:26;100049.25;;;-4.80;92.67
60089;BME280;45961;53.574;55.878;2023-12-04T00:02:27;100046.38;;;-4.73;92.67
60089;BME280;45961;53.574;55.878;2023-12-04T00:03:28;100051.00;;;-4.79;92.46
60089;BME280;45961;53.574;55.878;2023-12-04T00:04:29;100047.81;;;-4.77;92.62
60089;BME280;45961;53.574;55.878;2023-12-04T00:05:29;100043.41;;;-4.79;92.58
60089;BME280;45961;53.574;55.878;2023-12-04T00:06:30;100032.81;;;-4.87;92.59
60089;BME280;45961;53.574;55.878;2023-12-04T00:07:31;100032.81;;;-4.87;92.55
60089;BME280;45961;53.574;55.878;2023-12-04T00:08:32;100025.56;;;-4.82;92.72
60089;BME280;45961;53.574;55.878;2023-12-04T00:09:33;100028.09;;;-4.82;92.71
60089;BME280;45961;53.574;55.878;2023-12-04T00:10:34;100022.66;;;-4.75;92.89
60089;BME280;45961;53.574;55.878;2023-12-04T00:11:34;100018.66;;;-4.85;92.83
60089;BME280;45961;53.574;55.878;2023-12-04T00:12:35;100021.28;;;-4.83;92.92
60089;BME280;45961;53.574;55.878;2023-12-04T00:13:36;100012.72;;;-4.85;93.01
60089;BME280;45961;53.574;55.878;2023-12-04T00:14:37;100008.56;;;-4.85;92.92
60089;BME280;45961;53.574;55.878;2023-12-04T00:15:38;100005.56;;;-4.79;93.08
60089;BME280;45961;53.574;55.878;2023-12-04T00:16:39;100004.59;;;-4.81;92.97
60089;BME280;45961;53.574;55.878;2023-12-04T00:17:40;100000.31;;;-4.82;93.13
60089;BME280;45961;53.574;55.878;2023-12-04T00:18:41;100007.00;;;-4.83;93.30
60089;BME280;45961;53.574;55.878;2023-12-04T00:19:42;100008.78;;;-4.82;93.28
60089;BME280;45961;53.574;55.878;2023-12-04T00:20:43;100012.94;;;-4.82;93.38
60089;BME280;45961;53.574;55.878;2023-12-04T00:21:43;100004.38;;;-4.84;93.33
60089;BME280;45961;53.574;55.878;2023-12-04T00:22:45;100004.09;;;-4.76;93.45
60089;BME280;45961;53.574;55.878;2023-12-04T00:23:46;99998.75;;;-4.80;93.35
60089;BME280;45961;53.574;55.878;2023-12-04T00:24:47;100000.63;;;-4.78;93.41
60089;BME280;45961;53.574;55.878;2023-12-04T00:25:48;100011.59;;;-4.77;93.39
60089;BME280;45961;53.574;55.878;2023-12-04T00:26:49;100010.81;;;-4.76;93.62
60089;BME280;45961;53.574;55.878;2023-12-04T00:27:49;100000.63;;;-4.78;93.49
60089;BME280;45961;53.574;55.878;2023-12-04T00:28:51;100009.06;;;-4.77;93.42
60089;BME280;45961;53.574;55.878;2023-12-04T00:29:52;100008.28;;;-4.76;93.62
60089;BME280;45961;53.574;55.878;2023-12-04T00:30:53;99997.69;;;-4.71;93.68
60089;BME280;45961;53.574;55.878;2023-12-04T00:31:54;99996.66;;;-4.74;93.72
60089;BME280;45961;53.574;55.878;2023-12-04T00:32:57;99989.38;;;-4.69;93.84
60089;BME280;45961;53.574;55.878;2023-12-04T00:33:58;99992.19;;;-4.65;93.81
60089;BME280;45961;53.574;55.878;2023-12-04T00:34:59;99975.31;;;-4.66;93.78
60089;BME280;45961;53.574;55.878;2023-12-04T00:35:59;99971.56;;;-4.71;93.76
60089;BME280;45961;53.574;55.878;2023-12-04T00:37:00;99968.47;;;-4.67;93.69
60089;BME280;45961;53.574;55.878;2023-12-04T00:38:01;99958.88;;;-4.73;93.74
60089;BME280;45961;53.574;55.878;2023-12-04T00:39:02;99952.75;;;-4.76;93.96
60089;BME280;45961;53.574;55.878;2023-12-04T00:40:05;99954.91;;;-4.69;94.10
60089;BME280;45961;53.574;55.878;2023-12-04T00:41:06;99951.88;;;-4.63;94.19
60089;BME280;45961;53.574;55.878;2023-12-04T00:42:07;99950.81;;;-4.67;94.17
60089;BME280;45961;53.574;55.878;2023-12-04T00:43:08;99952.88;;;-4.61;94.04
60089;BME280;45961;53.574;55.878;2023-12-04T00:44:09;99950.63;;;-4.57;94.15
60089;BME280;45961;53.574;55.878;2023-12-04T00:45:10;99948.09;;;-4.57;93.99
60089;BME280;45961;53.574;55.878;2023-12-04T00:46:11;99938.28;;;-4.52;94.04
60089;BME280;45961;53.574;55.878;2023-12-04T00:47:11;99936.94;;;-4.47;94.02
60089;BME280;45961;53.574;55.878;2023-12-04T00:48:12;99930.13;;;-4.48;93.86
60089;BME280;45961;53.574;55.878;2023-12-04T00:49:13;99929.34;;;-4.47;93.81
60089;BME280;45961;53.574;55.878;2023-12-04T00:50:17;99935.41;;;-4.45;93.83
60089;BME280;45961;53.574;55.878;2023-12-04T00:51:18;99922.66;;;-4.47;93.87
60089;BME280;45961;53.574;55.878;2023-12-04T00:52:18;99922.06;;;-4.42;93.93
60089;BME280;45961;53.574;55.878;2023-12-04T00:53:19;99919.84;;;-4.38;93.76
60089;BME280;45961;53.574;55.878;2023-12-04T00:54:20;99927.22;;;-4.41;93.82
60089;BME280;45961;53.574;55.878;2023-12-04T00:55:21;99924.91;;;-4.38;93.75
60089;BME280;45961;53.574;55.878;2023-12-04T00:56:22;99920.03;;;-4.48;93.71
60089;BME280;45961;53.574;55.878;2023-12-04T00:57:23;99913.31;;;-4.48;93.77
60089;BME280;45961;53.574;55.878;2023-12-04T00:58:23;99908.38;;;-4.46;93.81
60089;BME280;45961;53.574;55.878;2023-12-04T00:59:24;99916.06;;;-4.44;93.95
60089;BME280;45961;53.574;55.878;2023-12-04T01:00:25;99918.09;;;-4.39;93.93
60089;BME280;45961;53.574;55.878;2023-12-04T01:01:26;99905.84;;;-4.33;93.92
60089;BME280;45961;53.574;55.878;2023-12-04T01:02:27;99906.72;;;-4.32;93.81
60089;BME280;45961;53.574;55.878;2023-12-04T01:03:28;99900.28;;;-4.27;93.83
60089;BME280;45961;53.574;55.878;2023-12-04T01:04:29;99908.84;;;-4.25;93.92
60089;BME280;45961;53.574;55.878;2023-12-04T01:05:30;99911.59;;;-4.22;93.94
60089;BME280;45961;53.574;55.878;2023-12-04T01:06:31;99915.66;;;-4.24;93.79
60089;BME280;45961;53.574;55.878;2023-12-04T01:07:32;99910.41;;;-4.27;93.72
60089;BME280;45961;53.574;55.878;2023-12-04T01:08:33;99898.47;;;-4.30;93.85
60089;BME280;45961;53.574;55.878;2023-12-04T01:09:36;99902.63;;;-4.30;93.79
60089;BME280;45961;53.574;55.878;2023-12-04T01:10:38;99893.91;;;-4.22;93.89
60089;BME280;45961;53.574;55.878;2023-12-04T01:11:39;99888.94;;;-4.20;93.86
60089;BME280;45961;53.574;55.878;2023-12-04T01:12:40;99891.22;;;-4.10;93.89
60089;BME280;45961;53.574;55.878;2023-12-04T01:13:41;99890.56;;;-4.08;93.53
60089;BME280;45961;53.574;55.878;2023-12-04T01:14:41;99890.34;;;-4.11;93.61
60089;BME280;45961;53.574;55.878;2023-12-04T01:15:42;99882.97;;;-4.08;93.50
60089;BME280;45961;53.574;55.878;2023-12-04T01:16:43;99891.09;;;-3.99;93.55
60089;BME280;45961;53.574;55.878;2023-12-04T01:17:44;99889.97;;;-4.04;93.38
60089;BME280;45961;53.574;55.878;2023-12-04T01:18:45;99889.69;;;-4.08;93.40
60089;BME280;45961;53.574;55.878;2023-12-04T01:19:46;99891.69;;;-4.03;93.40
60089;BME280;45961;53.574;55.878;2023-12-04T01:20:47;99880.53;;;-4.06;93.44
60089;BME280;45961;53.574;55.878;2023-12-04T01:21:48;99870.72;;;-4.02;93.35
60089;BME280;45961;53.574;55.878;2023-12-04T01:22:48;99866.63;;;-4.00;93.42
60089;BME280;45961;53.574;55.878;2023-12-04T01:23:49;99856.50;;;-4.00;93.43
60089;BME280;45961;53.574;55.878;2023-12-04T01:24:50;99858.63;;;-3.92;93.22
60089;BME280;45961;53.574;55.878;2023-12-04T01:25:51;99845.19;;;-3.91;93.41
60089;BME280;45961;53.574;55.878;2023-12-04T01:26:52;99852.78;;;-3.91;93.25
60089;BME280;45961;53.574;55.878;2023-12-04T01:27:53;99846.25;;;-3.88;93.30
60089;BME280;45961;53.574;55.878;2023-12-04T01:28:54;99840.81;;;-3.94;93.18
60089;BME280;45961;53.574;55.878;2023-12-04T01:29:54;99836.81;;;-3.90;93.15
60089;BME280;45961;53.574;55.878;2023-12-04T01:30:55;99841.88;;;-3.90;93.27
60089;BME280;45961;53.574;55.878;2023-12-04T01:31:57;99839.94;;;-3.94;93.29
60089;BME280;45961;53.574;55.878;2023-12-04T01:32:58;99831.88;;;-3.89;93.37
60089;BME280;45961;53.574;55.878;2023-12-04T01:33:59;99832.34;;;-3.81;93.29
60089;BME280;45961;53.574;55.878;2023-12-04T01:35:00;99833.88;;;-3.83;93.11
60089;BME280;45961;53.574;55.878;2023-12-04T01:36:01;99832.50;;;-3.78;93.19
60089;BME280;45961;53.574;55.878;2023-12-04T01:37:02;99825.38;;;-3.70;93.14
60089;BME280;45961;53.574;55.878;2023-12-04T01:38:03;99825.88;;;-3.76;93.03
60089;BME280;45961;53.574;55.878;2023-12-04T01:39:04;99822.69;;;-3.74;92.95
60089;BME280;45961;53.574;55.878;2023-12-04T01:40:05;99822.22;;;-3.81;92.96
60089;BME280;45961;53.574;55.878;2023-12-04T01:41:07;99818.03;;;-3.81;93.12
60089;BME280;45961;53.574;55.878;2023-12-04T01:42:08;99811.31;;;-3.80;93.27
60089;BME280;45961;53.574;55.878;2023-12-04T01:43:08;99809.19;;;-3.87;93.37
60089;BME280;45961;53.574;55.878;2023-12-04T01:44:09;99810.19;;;-3.85;93.44
60089;BME280;45961;53.574;55.878;2023-12-04T01:45:10;99804.69;;;-3.78;93.72
60089;BME280;45961;53.574;55.878;2023-12-04T01:46:11;99799.31;;;-3.69;93.77
60089;BME280;45961;53.574;55.878;2023-12-04T01:47:14;99799.03;;;-3.74;93.74
60089;BME280;45961;53.574;55.878;2023-12-04T01:48:15;99800.06;;;-3.70;93.85
60089;BME280;45961;53.574;55.878;2023-12-04T01:49:16;99800.78;;;-3.73;93.75
60089;BME280;45961;53.574;55.878;2023-12-04T01:50:17;99798.25;;;-3.73;93.94
60089;BME280;45961;53.574;55.878;2023-12-04T01:51:18;99809.44;;;-3.69;93.80
60089;BME280;45961;53.574;55.878;2023-12-04T01:52:20;99794.53;;;-3.65;93.86
60089;BME280;45961;53.574;55.878;2023-12-04T01:53:20;99791.72;;;-3.69;93.90
60089;BME280;45961;53.574;55.878;2023-12-04T01:54:22;99785.47;;;-3.61;93.93
60089;BME280;45961;53.574;55.878;2023-12-04T01:55:23;99788.66;;;-3.64;93.86
60089;BME280;45961;53.574;55.878;2023-12-04T01:56:24;99786.81;;;-3.66;93.87
60089;BME280;45961;53.574;55.878;2023-12-04T01:57:25;99784.56;;;-3.62;93.93
60089;BME280;45961;53.574;55.878;2023-12-04T01:58:26;99774.56;;;-3.60;94.10
60089;BME280;45961;53.574;55.878;2023-12-04T01:59:27;99773.88;;;-3.58;93.96
60089;BME280;45961;53.574;55.878;2023-12-04T02:00:28;99760.44;;;-3.57;93.96
60089;BME280;45961;53.574;55.878;2023-12-04T02:01:30;99750.56;;;-3.52;93.91
60089;BME280;45961;53.574;55.878;2023-12-04T02:02:31;99752.03;;;-3.56;93.96
60089;BME280;45961;53.574;55.878;2023-12-04T02:03:31;99748.03;;;-3.52;94.08
60089;BME280;45961;53.574;55.878;2023-12-04T02:04:33;99754.38;;;-3.59;94.03
60089;BME280;45961;53.574;55.878;2023-12-04T02:05:34;99751.19;;;-3.56;94.16
60089;BME280;45961;53.574;55.878;2023-12-04T02:06:35;99748.28;;;-3.48;94.17
60089;BME280;45961;53.574;55.878;2023-12-04T02:07:36;99750.81;;;-3.48;94.14
60089;BME280;45961;53.574;55.878;2023-12-04T02:08:40;99748.81;;;-3.53;94.44
60089;BME280;45961;53.574;55.878;2023-12-04T02:09:41;99742.28;;;-3.50;94.25
60089;BME280;45961;53.574;55.878;2023-12-04T02:10:42;99737.84;;;-3.54;94.49
60089;BME280;45961;53.574;55.878;2023-12-04T02:11:43;99744.03;;;-3.49;94.60
60089;BME280;45961;53.574;55.878;2023-12-04T02:12:44;99738.97;;;-3.49;94.48
60089;BME280;45961;53.574;55.878;2023-12-04T02:13:45;99732.31;;;-3.47;94.58
60089;BME280;45961;53.574;55.878;2023-12-04T02:14:46;99727.50;;;-3.42;94.72
60089;BME280;45961;53.574;55.878;2023-12-04T02:15:47;99723.50;;;-3.38;94.70
60089;BME280;45961;53.574;55.878;2023-12-04T02:16:51;99711.47;;;-3.42;95.04
60089;BME280;45961;53.574;55.878;2023-12-04T02:17:52;99715.91;;;-3.38;95.08
60089;BME280;45961;53.574;55.878;2023-12-04T02:18:53;99711.03;;;-3.35;95.24
60089;BME280;45961;53.574;55.878;2023-12-04T02:19:54;99712.06;;;-3.32;95.24
60089;BME280;45961;53.574;55.878;2023-12-04T02:20:55;99708.84;;;-3.29;95.57
60089;BME280;45961;53.574;55.878;2023-12-04T02:21:56;99712.25;;;-3.29;95.43
60089;BME280;45961;53.574;55.878;2023-12-04T02:22:57;99713.75;;;-3.32;95.54
60089;BME280;45961;53.574;55.878;2023-12-04T02:23:58;99710.41;;;-3.31;95.86
60089;BME280;45961;53.574;55.878;2023-12-04T02:24:59;99715.97;;;-3.22;95.74
60089;BME280;45961;53.574;55.878;2023-12-04T02:26:01;99711.97;;;-3.18;95.75
60089;BME280;45961;53.574;55.878;2023-12-04T02:27:22;99714.75;;;-3.14;95.68
60089;BME280;45961;53.574;55.878;2023-12-04T02:28:24;99719.03;;;-3.13;95.80
60089;BME280;45961;53.574;55.878;2023-12-04T02:29:29;99723.13;;;-3.15;95.86
60089;BME280;45961;53.574;55.878;2023-12-04T02:30:30;99723.13;;;-3.15;95.83
60089;BME280;45961;53.574;55.878;2023-12-04T02:31:31;99723.38;;;-3.10;95.88
60089;BME280;45961;53.574;55.878;2023-12-04T02:32:35;99730.44;;;-3.05;96.01
60089;BME280;45961;53.574;55.878;2023-12-04T02:33:39;99728.69;;;-3.06;95.94
60089;BME280;45961;53.574;55.878;2023-12-04T02:34:40;99728.78;;;-3.04;95.93
60089;BME280;45961;53.574;55.878;2023-12-04T02:35:42;99718.84;;;-3.01;96.03
60089;BME280;45961;53.574;55.878;2023-12-04T02:36:43;99718.97;;;-2.98;95.95
60089;BME280;45961;53.574;55.878;2023-12-04T02:37:46;99718.97;;;-2.98;96.02
60089;BME280;45961;53.574;55.878;2023-12-04T02:38:47;99722.66;;;-2.93;96.04
60089;BME280;45961;53.574;55.878;2023-12-04T02:39:50;99707.72;;;-2.88;95.95
60089;BME280;45961;53.574;55.878;2023-12-04T02:40:55;99704.94;;;-2.93;95.97
60089;BME280;45961;53.574;55.878;2023-12-04T02:41:57;99704.13;;;-2.92;96.04
60089;BME280;45961;53.574;55.878;2023-12-04T02:42:58;99705.88;;;-2.91;95.94
60089;BME280;45961;53.574;55.878;2023-12-04T02:43:59;99703.50;;;-2.88;95.99
60089;BME280;45961;53.574;55.878;2023-12-04T02:45:00;99695.91;;;-2.88;96.22
60089;BME280;45961;53.574;55.878;2023-12-04T02:46:01;99694.50;;;-2.83;96.21
60089;BME280;45961;53.574;55.878;2023-12-04T02:47:02;99686.03;;;-2.83;96.12
60089;BME280;45961;53.574;55.878;2023-12-04T02:48:03;99686.09;;;-2.82;96.21
60089;BME280;45961;53.574;55.878;2023-12-04T02:49:04;99688.72;;;-2.80;96.19
60089;BME280;45961;53.574;55.878;2023-12-04T02:50:04;99673.53;;;-2.80;96.13
60089;BME280;45961;53.574;55.878;2023-12-04T02:51:05;99677.81;;;-2.79;96.37
60089;BME280;45961;53.574;55.878;2023-12-04T02:52:06;99674.63;;;-2.75;96.25
60089;BME280;45961;53.574;55.878;2023-12-04T02:53:07;99674.81;;;-2.72;96.41
60089;BME280;45961;53.574;55.878;2023-12-04T02:54:11;99675.75;;;-2.70;96.22
60089;BME280;45961;53.574;55.878;2023-12-04T02:55:12;99687.72;;;-2.67;96.35
60089;BME280;45961;53.574;55.878;2023-12-04T02:56:13;99680.03;;;-2.69;96.38
60089;BME280;45961;53.574;55.878;2023-12-04T02:57:13;99676.72;;;-2.68;96.44
60089;BME280;45961;53.574;55.878;2023-12-04T02:58:14;99676.72;;;-2.68;96.37
60089;BME280;45961;53.574;55.878;2023-12-04T02:59:15;99675.28;;;-2.63;96.49
60089;BME280;45961;53.574;55.878;2023-12-04T03:00:16;99671.94;;;-2.62;96.59
60089;BME280;45961;53.574;55.878;2023-12-04T03:01:17;99665.16;;;-2.63;96.61
60089;BME280;45961;53.574;55.878;2023-12-04T03:02:18;99656.06;;;-2.59;96.74
60089;BME280;45961;53.574;55.878;2023-12-04T03:03:19;99662.16;;;-2.56;96.73
60089;BME280;45961;53.574;55.878;2023-12-04T03:04:20;99658.59;;;-2.59;96.72
60089;BME280;45961;53.574;55.878;2023-12-04T03:05:20;99656.28;;;-2.55;96.81
60089;BME280;45961;53.574;55.878;2023-12-04T03:06:21;99661.44;;;-2.53;96.94
60089;BME280;45961;53.574;55.878;2023-12-04T03:07:22;99661.19;;;-2.58;96.90
60089;BME280;45961;53.574;55.878;2023-12-04T03:08:26;99655.50;;;-2.54;97.06
60089;BME280;45961;53.574;55.878;2023-12-04T03:09:27;99657.88;;;-2.57;97.28
60089;BME280;45961;53.574;55.878;2023-12-04T03:10:27;99648.69;;;-2.55;97.14
60089;BME280;45961;53.574;55.878;2023-12-04T03:11:28;99647.19;;;-2.51;97.26
60089;BME280;45961;53.574;55.878;2023-12-04T03:12:29;99640.44;;;-2.51;97.32
60089;BME280;45961;53.574;55.878;2023-12-04T03:13:30;99633.88;;;-2.47;97.21
60089;BME280;45961;53.574;55.878;2023-12-04T03:14:31;99637.91;;;-2.51;97.41
60089;BME280;45961;53.574;55.878;2023-12-04T03:15:32;99637.22;;;-2.48;97.32
60089;BME280;45961;53.574;55.878;2023-12-04T03:16:32;99630.31;;;-2.51;97.27
60089;BME280;45961;53.574;55.878;2023-12-04T03:17:33;99635.53;;;-2.47;97.54
60089;BME280;45961;53.574;55.878;2023-12-04T03:18:35;99620.28;;;-2.49;97.60
60089;BME280;45961;53.574;55.878;2023-12-04T03:19:36;99624.53;;;-2.48;97.67
60089;BME280;45961;53.574;55.878;2023-12-04T03:20:37;99621.38;;;-2.44;97.76
60089;BME280;45961;53.574;55.878;2023-12-04T03:21:38;99624.78;;;-2.43;97.72
60089;BME280;45961;53.574;55.878;2023-12-04T03:22:39;99618.09;;;-2.41;97.82
60089;BME280;45961;53.574;55.878;2023-12-04T03:23:40;99623.97;;;-2.42;97.72
60089;BME280;45961;53.574;55.878;2023-12-04T03:24:40;99629.03;;;-2.42;97.90
60089;BME280;45961;53.574;55.878;2023-12-04T03:25:41;99628.25;;;-2.41;97.90
60089;BME280;45961;53.574;55.878;2023-12-04T03:26:42;99624.84;;;-2.42;97.94
60089;BME280;45961;53.574;55.878;2023-12-04T03:27:43;99624.19;;;-2.38;97.98
60089;BME280;45961;53.574;55.878;2023-12-04T03:28:44;99619.06;;;-2.39;98.08
60089;BME280;45961;53.574;55.878;2023-12-04T03:29:45;99621.75;;;-2.36;97.99
60089;BME280;45961;53.574;55.878;2023-12-04T03:30:46;99622.22;;;-2.27;98.02
60089;BME280;45961;53.574;55.878;2023-12-04T03:31:47;99614.38;;;-2.32;97.97
60089;BME280;45961;53.574;55.878;2023-12-04T03:32:48;99613.53;;;-2.32;98.12
60089;BME280;45961;53.574;55.878;2023-12-04T03:33:49;99606.19;;;-2.26;98.20
60089;BME280;45961;53.574;55.878;2023-12-04T03:34:50;99601.94;;;-2.27;98.24
60089;BME280;45961;53.574;55.878;2023-12-04T03:35:51;99595.53;;;-2.20;98.48
60089;BME280;45961;53.574;55.878;2023-12-04T03:36:52;99590.81;;;-2.13;98.36
60089;BME280;45961;53.574;55.878;2023-12-04T03:37:53;99586.47;;;-2.15;98.34
60089;BME280;45961;53.574;55.878;2023-12-04T03:38:54;99578.88;;;-2.15;98.43
60089;BME280;45961;53.574;55.878;2023-12-04T03:39:54;99578.69;;;-2.18;98.48
60089;BME280;45961;53.574;55.878;2023-12-04T03:40:56;99576.38;;;-2.14;98.52
60089;BME280;45961;53.574;55.878;2023-12-04T03:41:57;99570.22;;;-2.19;98.34
60089;BME280;45961;53.574;55.878;2023-12-04T03:42:58;99555.09;;;-2.17;98.36
60089;BME280;45961;53.574;55.878;2023-12-04T03:43:59;99560.31;;;-2.14;98.45
60089;BME280;45961;53.574;55.878;2023-12-04T03:45:00;99551.34;;;-2.08;98.26
60089;BME280;45961;53.574;55.878;2023-12-04T03:46:00;99549.47;;;-2.12;98.45
60089;BME280;45961;53.574;55.878;2023-12-04T03:47:01;99544.53;;;-2.09;98.27
60089;BME280;45961;53.574;55.878;2023-12-04T03:48:02;99532.63;;;-2.10;98.41
60089;BME280;45961;53.574;55.878;2023-12-04T03:49:05;99534.31;;;-2.10;98.37
60089;BME280;45961;53.574;55.878;2023-12-04T03:50:06;99529.34;;;-2.09;98.30
60089;BME280;45961;53.574;55.878;2023-12-04T03:51:07;99528.38;;;-2.11;98.29
60089;BME280;45961;53.574;55.878;2023-12-04T03:52:07;99527.00;;;-2.04;98.32
60089;BME280;45961;53.574;55.878;2023-12-04T03:53:08;99532.28;;;-2.00;98.49
60089;BME280;45961;53.574;55.878;2023-12-04T03:54:09;99525.25;;;-2.05;98.45
60089;BME280;45961;53.574;55.878;2023-12-04T03:55:10;99529.59;;;-2.03;98.25
60089;BME280;45961;53.574;55.878;2023-12-04T03:56:11;99527.13;;;-2.01;98.47
60089;BME280;45961;53.574;55.878;2023-12-04T03:57:12;99528.91;;;-2.00;98.42
60089;BME280;45961;53.574;55.878;2023-12-04T03:58:13;99519.19;;;-2.09;98.46
60089;BME280;45961;53.574;55.878;2023-12-04T03:59:14;99531.44;;;-2.00;98.98
60089;BME280;45961;53.574;55.878;2023-12-04T04:00:15;99516.72;;;-2.07;98.72
60089;BME280;45961;53.574;55.878;2023-12-04T04:01:16;99521.06;;;-2.05;98.71
60089;BME280;45961;53.574;55.878;2023-12-04T04:02:17;99521.19;;;-2.02;98.88
60089;BME280;45961;53.574;55.878;2023-12-04T04:03:18;99519.78;;;-1.96;98.96
60089;BME280;45961;53.574;55.878;2023-12-04T04:04:19;99513.91;;;-1.95;99.04
60089;BME280;45961;53.574;55.878;2023-12-04T04:05:20;99512.44;;;-1.90;98.92
60089;BME280;45961;53.574;55.878;2023-12-04T04:06:20;99518.25;;;-1.93;98.99
60089;BME280;45961;53.574;55.878;2023-12-04T04:07:21;99511.41;;;-1.94;99.08
60089;BME280;45961;53.574;55.878;2023-12-04T04:08:22;99509.19;;;-1.88;99.02
60089;BME280;45961;53.574;55.878;2023-12-04T04:09:23;99506.72;;;-1.86;99.18
60089;BME280;45961;53.574;55.878;2023-12-04T04:10:24;99499.84;;;-1.89;99.12
60089;BME280;45961;53.574;55.878;2023-12-04T04:11:25;99499.25;;;-1.83;99.26
60089;BME280;45961;53.574;55.878;2023-12-04T04:12:28;99494.19;;;-1.83;99.26
60089;BME280;45961;53.574;55.878;2023-12-04T04:13:29;99489.16;;;-1.82;99.19
60089;BME280;45961;53.574;55.878;2023-12-04T04:14:30;99497.72;;;-1.80;99.23
60089;BME280;45961;53.574;55.878;2023-12-04T04:15:31;99487.50;;;-1.81;99.25
60089;BME280;45961;53.574;55.878;2023-12-04T04:16:32;99483.38;;;-1.79;99.21
60089;BME280;45961;53.574;55.878;2023-12-04T04:17:33;99485.25;;;-1.75;99.43
60089;BME280;45961;53.574;55.878;2023-12-04T04:18:34;99492.88;;;-1.75;99.53
60089;BME280;45961;53.574;55.878;2023-12-04T04:19:35;99478.72;;;-1.70;99.55
60089;BME280;45961;53.574;55.878;2023-12-04T04:20:36;99486.41;;;-1.68;99.61
60089;BME280;45961;53.574;55.878;2023-12-04T04:21:40;99484.66;;;-1.69;99.41
60089;BME280;45961;53.574;55.878;2023-12-04T04:22:41;99477.63;;;-1.75;99.65
60089;BME280;45961;53.574;55.878;2023-12-04T04:23:43;99477.84;;;-1.70;99.66
60089;BME280;45961;53.574;55.878;2023-12-04T04:24:44;99484.59;;;-1.71;99.54
60089;BME280;45961;53.574;55.878;2023-12-04T04:25:45;99486.31;;;-1.70;99.78
60089;BME280;45961;53.574;55.878;2023-12-04T04:26:45;99486.25;;;-1.71;99.84
60089;BME280;45961;53.574;55.878;2023-12-04T04:27:46;99486.25;;;-1.71;99.86
60089;BME280;45961;53.574;55.878;2023-12-04T04:28:47;99488.84;;;-1.70;100.00
60089;BME280;45961;53.574;55.878;2023-12-04T04:29:48;99494.06;;;-1.67;100.00
60089;BME280;45961;53.574;55.878;2023-12-04T04:30:49;99489.94;;;-1.65;100.00
60089;BME280;45961;53.574;55.878;2023-12-04T04:31:50;99484.22;;;-1.61;100.00
60089;BME280;45961;53.574;55.878;2023-12-04T04:32:51;99480.72;;;-1.63;100.00
60089;BME280;45961;53.574;55.878;2023-12-04T04:33:51;99482.66;;;-1.57;100.00
60089;BME280;45961;53.574;55.878;2023-12-04T04:34:52;99472.47;;;-1.59;100.00
60089;BME280;45961;53.574;55.878;2023-12-04T04:35:53;99475.66;;;-1.63;100.00
60089;BME280;45961;53.574;55.878;2023-12-04T04:36:54;99474.06;;;-1.61;100.00
60089;BME280;45961;53.574;55.878;2023-12-04T04:37:55;99473.31;;;-1.58;100.00
60089;BME280;45961;53.574;55.878;2023-12-04T04:38:56;99473.53;;;-1.54;100.00
60089;BME280;45961;53.574;55.878;2023-12-04T04:39:57;99466.06;;;-1.51;100.00
60089;BME280;45961;53.574;55.878;2023-12-04T04:40:58;99467.94;;;-1.46;100.00
60089;BME280;45961;53.574;55.878;2023-12-04T04:41:58;99462.13;;;-1.44;100.00
60089;BME280;45961;53.574;55.878;2023-12-04T04:42:59;99461.28;;;-1.44;100.00
60089;BME280;45961;53.574;55.878;2023-12-04T04:44:00;99459.50;;;-1.45;100.00
60089;BME280;45961;53.574;55.878;2023-12-04T04:45:01;99447.69;;;-1.45;100.00
60089;BME280;45961;53.574;55.878;2023-12-04T04:46:02;99446.16;;;-1.41;100.00
60089;BME280;45961;53.574;55.878;2023-12-04T04:47:03;99437.63;;;-1.43;100.00
60089;BME280;45961;53.574;55.878;2023-12-04T04:48:04;99431.78;;;-1.41;100.00
60089;BME280;45961;53.574;55.878;2023-12-04T04:49:05;99426.78;;;-1.39;100.00
60089;BME280;45961;53.574;55.878;2023-12-04T04:50:09;99423.50;;;-1.37;100.00
60089;BME280;45961;53.574;55.878;2023-12-04T04:51:10;99420.09;;;-1.37;100.00
60089;BME280;45961;53.574;55.878;2023-12-04T04:52:11;99408.22;;;-1.38;100.00
60089;BME280;45961;53.574;55.878;2023-12-04T04:53:12;99410.75;;;-1.38;100.00
60089;BME280;45961;53.574;55.878;2023-12-04T04:54:12;99409.94;;;-1.37;100.00
60089;BME280;45961;53.574;55.878;2023-12-04T04:55:13;99425.31;;;-1.34;100.00
60089;BME280;45961;53.574;55.878;2023-12-04T04:56:14;99394.84;;;-1.34;100.00
60089;BME280;45961;53.574;55.878;2023-12-04T04:57:15;99393.38;;;-1.29;100.00
60089;BME280;45961;53.574;55.878;2023-12-04T04:58:16;99390.66;;;-1.34;100.00
60089;BME280;45961;53.574;55.878;2023-12-04T04:59:18;99395.91;;;-1.29;100.00
60089;BME280;45961;53.574;55.878;2023-12-04T05:00:18;99402.75;;;-1.28;100.00
60089;BME280;45961;53.574;55.878;2023-12-04T05:01:20;99396.19;;;-1.23;100.00
60089;BME280;45961;53.574;55.878;2023-12-04T05:02:21;99401.22;;;-1.25;100.00
60089;BME280;45961;53.574;55.878;2023-12-04T05:03:22;99405.81;;;-1.16;100.00
60089;BME280;45961;53.574;55.878;2023-12-04T05:04:23;99408.44;;;-1.13;100.00
60089;BME280;45961;53.574;55.878;2023-12-04T05:05:24;99426.38;;;-1.10;100.00
60089;BME280;45961;53.574;55.878;2023-12-04T05:06:25;99425.56;;;-1.09;100.00
60089;BME280;45961;53.574;55.878;2023-12-04T05:07:26;99419.75;;;-1.06;100.00
60089;BME280;45961;53.574;55.878;2023-12-04T05:08:27;99418.34;;;-1.00;100.00
60089;BME280;45961;53.574;55.878;2023-12-04T05:09:27;99415.66;;;-1.03;100.00
60089;BME280;45961;53.574;55.878;2023-12-04T05:10:28;99414.03;;;-1.01;100.00
60089;BME280;45961;53.574;55.878;2023-12-04T05:11:29;99419.25;;;-0.97;100.00
60089;BME280;45961;53.574;55.878;2023-12-04T05:12:30;99416.84;;;-0.94;100.00
60089;BME280;45961;53.574;55.878;2023-12-04T05:13:31;99418.53;;;-0.95;100.00
60089;BME280;45961;53.574;55.878;2023-12-04T05:14:32;99432.91;;;-0.95;100.00
60089;BME280;45961;53.574;55.878;2023-12-04T05:15:33;99423.81;;;-0.90;100.00
60089;BME280;45961;53.574;55.878;2023-12-04T05:16:34;99418.91;;;-0.86;100.00
60089;BME280;45961;53.574;55.878;2023-12-04T05:17:34;99429.16;;;-0.84;100.00
60089;BME280;45961;53.574;55.878;2023-12-04T05:18:35;99435.16;;;-0.82;100.00